sensor_id;sensor_type;location;lat;lon;timestamp;P1;durP1;ratioP1;P2;durP2;ratioP2
28028;SDS011;15345;59.364;18.016;2023-05-07T00:00:32;2.70;;;2.50;;
28028;SDS011;15345;59.364;18.016;2023-05-07T00:01:52;2.80;;;2.33;;
28028;SDS011;15345;59.364;18.016;2023-05-07T00:03:12;5.03;;;2.50;;
28028;SDS011;15345;59.364;18.016;2023-05-07T00:04:32;3.60;;;2.35;;
28028;SDS011;15345;59.364;18.016;2023-05-07T00:05:55;3.78;;;2.38;;
28028;SDS011;15345;59.364;18.016;2023-05-07T00:07:14;4.00;;;2.42;;
28028;SDS011;15345;59.364;18.016;2023-05-07T00:08:34;4.70;;;2.30;;
28028;SDS011;15345;59.364;18.016;2023-05-07T00:09:52;2.50;;;2.30;;
28028;SDS011;15345;59.364;18.016;2023-05-07T00:11:11;2.58;;;2.30;;
28028;SDS011;15345;59.364;18.016;2023-05-07T00:12:30;3.13;;;2.38;;
28028;SDS011;15345;59.364;18.016;2023-05-07T00:13:52;3.58;;;2.20;;
28028;SDS011;15345;59.364;18.016;2023-05-07T00:15:11;4.35;;;2.70;;
28028;SDS011;15345;59.364;18.016;2023-05-07T00:16:30;2.20;;;2.00;;
28028;SDS011;15345;59.364;18.016;2023-05-07T00:17:49;2.58;;;2.17;;
28028;SDS011;15345;59.364;18.016;2023-05-07T00:19:07;2.92;;;2.00;;
28028;SDS011;15345;59.364;18.016;2023-05-07T00:20:26;2.55;;;2.30;;
28028;SDS011;15345;59.364;18.016;2023-05-07T00:21:45;3.30;;;2.30;;
28028;SDS011;15345;59.364;18.016;2023-05-07T00:23:05;3.55;;;2.40;;
28028;SDS011;15345;59.364;18.016;2023-05-07T00:24:24;2.60;;;2.40;;
28028;SDS011;15345;59.364;18.016;2023-05-07T00:25:43;2.50;;;2.13;;
28028;SDS011;15345;59.364;18.016;2023-05-07T00:27:02;2.38;;;2.28;;
28028;SDS011;15345;59.364;18.016;2023-05-07T00:28:21;2.20;;;2.00;;
28028;SDS011;15345;59.364;18.016;2023-05-07T00:29:40;2.38;;;2.08;;
28028;SDS011;15345;59.364;18.016;2023-05-07T00:30:59;3.78;;;2.42;;
28028;SDS011;15345;59.364;18.016;2023-05-07T00:32:18;3.25;;;2.25;;
28028;SDS011;15345;59.364;18.016;2023-05-07T00:33:37;2.60;;;2.40;;
28028;SDS011;15345;59.364;18.016;2023-05-07T00:34:56;2.78;;;2.35;;
28028;SDS011;15345;59.364;18.016;2023-05-07T00:36:15;2.33;;;2.10;;
28028;SDS011;15345;59.364;18.016;2023-05-07T00:37:34;4.03;;;2.30;;
28028;SDS011;15345;59.364;18.016;2023-05-07T00:38:53;2.00;;;1.80;;
28028;SDS011;15345;59.364;18.016;2023-05-07T00:40:12;2.60;;;2.13;;
28028;SDS011;15345;59.364;18.016;2023-05-07T00:41:31;6.28;;;2.50;;
28028;SDS011;15345;59.364;18.016;2023-05-07T00:42:50;4.07;;;2.30;;
28028;SDS011;15345;59.364;18.016;2023-05-07T00:44:11;5.80;;;2.30;;
28028;SDS011;15345;59.364;18.016;2023-05-07T00:45:31;2.38;;;1.73;;
28028;SDS011;15345;59.364;18.016;2023-05-07T00:46:50;2.55;;;2.35;;
28028;SDS011;15345;59.364;18.016;2023-05-07T00:48:09;3.25;;;2.15;;
28028;SDS011;15345;59.364;18.016;2023-05-07T00:49:38;2.22;;;2.03;;
28028;SDS011;15345;59.364;18.016;2023-05-07T00:50:57;7.20;;;2.53;;
28028;SDS011;15345;59.364;18.016;2023-05-07T00:52:16;2.20;;;2.00;;
28028;SDS011;15345;59.364;18.016;2023-05-07T00:53:36;2.17;;;2.05;;
28028;SDS011;15345;59.364;18.016;2023-05-07T00:54:55;2.70;;;2.22;;
28028;SDS011;15345;59.364;18.016;2023-05-07T00:56:14;2.45;;;2.25;;
28028;SDS011;15345;59.364;18.016;2023-05-07T00:57:36;2.00;;;1.90;;
28028;SDS011;15345;59.364;18.016;2023-05-07T00:58:55;3.05;;;2.13;;
28028;SDS011;15345;59.364;18.016;2023-05-07T01:00:14;3.22;;;2.72;;
28028;SDS011;15345;59.364;18.016;2023-05-07T01:01:33;3.38;;;2.30;;
28028;SDS011;15345;59.364;18.016;2023-05-07T01:02:52;3.58;;;2.40;;
28028;SDS011;15345;59.364;18.016;2023-05-07T01:04:11;2.88;;;2.55;;
28028;SDS011;15345;59.364;18.016;2023-05-07T01:05:30;2.90;;;2.58;;
28028;SDS011;15345;59.364;18.016;2023-05-07T01:06:50;3.97;;;2.50;;
28028;SDS011;15345;59.364;18.016;2023-05-07T01:08:09;2.65;;;2.40;;
28028;SDS011;15345;59.364;18.016;2023-05-07T01:09:29;3.08;;;2.47;;
28028;SDS011;15345;59.364;18.016;2023-05-07T01:10:48;5.57;;;2.40;;
28028;SDS011;15345;59.364;18.016;2023-05-07T01:12:07;4.68;;;2.30;;
28028;SDS011;15345;59.364;18.016;2023-05-07T01:13:27;2.63;;;2.40;;
28028;SDS011;15345;59.364;18.016;2023-05-07T01:14:46;3.83;;;2.63;;
28028;SDS011;15345;59.364;18.016;2023-05-07T01:16:05;3.78;;;2.78;;
28028;SDS011;15345;59.364;18.016;2023-05-07T01:17:25;7.80;;;2.50;;
28028;SDS011;15345;59.364;18.016;2023-05-07T01:18:44;3.45;;;2.50;;
28028;SDS011;15345;59.364;18.016;2023-05-07T01:20:06;2.88;;;2.50;;
28028;SDS011;15345;59.364;18.016;2023-05-07T01:21:26;3.35;;;2.42;;
28028;SDS011;15345;59.364;18.016;2023-05-07T01:22:49;5.75;;;2.60;;
28028;SDS011;15345;59.364;18.016;2023-05-07T01:24:08;4.63;;;2.65;;
28028;SDS011;15345;59.364;18.016;2023-05-07T01:25:27;4.65;;;2.60;;
28028;SDS011;15345;59.364;18.016;2023-05-07T01:26:46;4.57;;;2.58;;
28028;SDS011;15345;59.364;18.016;2023-05-07T01:28:05;3.80;;;2.92;;
28028;SDS011;15345;59.364;18.016;2023-05-07T01:29:24;4.00;;;2.95;;
28028;SDS011;15345;59.364;18.016;2023-05-07T01:30:44;2.60;;;2.40;;
28028;SDS011;15345;59.364;18.016;2023-05-07T01:32:05;4.65;;;3.03;;
28028;SDS011;15345;59.364;18.016;2023-05-07T01:33:25;4.75;;;2.45;;
28028;SDS011;15345;59.364;18.016;2023-05-07T01:34:45;5.40;;;2.80;;
28028;SDS011;15345;59.364;18.016;2023-05-07T01:36:05;3.65;;;2.83;;
28028;SDS011;15345;59.364;18.016;2023-05-07T01:37:26;2.95;;;2.65;;
28028;SDS011;15345;59.364;18.016;2023-05-07T01:38:45;3.20;;;2.90;;
28028;SDS011;15345;59.364;18.016;2023-05-07T01:40:04;2.88;;;2.67;;
28028;SDS011;15345;59.364;18.016;2023-05-07T01:41:23;4.32;;;3.38;;
28028;SDS011;15345;59.364;18.016;2023-05-07T01:42:43;6.22;;;3.05;;
28028;SDS011;15345;59.364;18.016;2023-05-07T01:44:02;4.20;;;3.17;;
28028;SDS011;15345;59.364;18.016;2023-05-07T01:45:22;3.00;;;2.80;;
28028;SDS011;15345;59.364;18.016;2023-05-07T01:46:41;5.88;;;3.42;;
28028;SDS011;15345;59.364;18.016;2023-05-07T01:48:01;4.03;;;3.35;;
28028;SDS011;15345;59.364;18.016;2023-05-07T01:49:20;4.55;;;3.15;;
28028;SDS011;15345;59.364;18.016;2023-05-07T01:50:39;6.10;;;4.10;;
28028;SDS011;15345;59.364;18.016;2023-05-07T01:51:59;3.55;;;3.35;;
28028;SDS011;15345;59.364;18.016;2023-05-07T01:53:18;5.72;;;3.05;;
28028;SDS011;15345;59.364;18.016;2023-05-07T01:54:37;5.95;;;3.63;;
28028;SDS011;15345;59.364;18.016;2023-05-07T01:55:57;3.67;;;3.00;;
28028;SDS011;15345;59.364;18.016;2023-05-07T01:57:15;4.38;;;3.72;;
28028;SDS011;15345;59.364;18.016;2023-05-07T01:58:34;3.60;;;3.10;;
28028;SDS011;15345;59.364;18.016;2023-05-07T01:59:53;5.20;;;3.42;;
28028;SDS011;15345;59.364;18.016;2023-05-07T02:01:13;5.30;;;3.55;;
28028;SDS011;15345;59.364;18.016;2023-05-07T02:02:32;5.28;;;3.38;;
28028;SDS011;15345;59.364;18.016;2023-05-07T02:03:51;3.20;;;3.00;;
28028;SDS011;15345;59.364;18.016;2023-05-07T02:05:10;3.50;;;3.22;;
28028;SDS011;15345;59.364;18.016;2023-05-07T02:06:29;4.00;;;3.58;;
28028;SDS011;15345;59.364;18.016;2023-05-07T02:07:49;5.40;;;3.08;;
28028;SDS011;15345;59.364;18.016;2023-05-07T02:09:08;4.60;;;3.22;;
28028;SDS011;15345;59.364;18.016;2023-05-07T02:10:27;3.35;;;3.13;;
28028;SDS011;15345;59.364;18.016;2023-05-07T02:11:46;3.35;;;3.13;;
28028;SDS011;15345;59.364;18.016;2023-05-07T02:13:05;4.40;;;3.33;;
28028;SDS011;15345;59.364;18.016;2023-05-07T02:14:24;5.60;;;2.83;;
28028;SDS011;15345;59.364;18.016;2023-05-07T02:15:44;3.80;;;3.17;;
28028;SDS011;15345;59.364;18.016;2023-05-07T02:17:07;4.95;;;3.30;;
28028;SDS011;15345;59.364;18.016;2023-05-07T02:18:26;4.95;;;3.28;;
28028;SDS011;15345;59.364;18.016;2023-05-07T02:19:45;3.60;;;3.08;;
28028;SDS011;15345;59.364;18.016;2023-05-07T02:21:04;5.55;;;3.20;;
28028;SDS011;15345;59.364;18.016;2023-05-07T02:22:23;3.17;;;2.97;;
28028;SDS011;15345;59.364;18.016;2023-05-07T02:23:43;4.45;;;2.83;;
28028;SDS011;15345;59.364;18.016;2023-05-07T02:25:02;2.83;;;2.63;;
28028;SDS011;15345;59.364;18.016;2023-05-07T02:26:21;3.15;;;2.95;;
28028;SDS011;15345;59.364;18.016;2023-05-07T02:27:40;3.72;;;2.88;;
28028;SDS011;15345;59.364;18.016;2023-05-07T02:28:59;3.97;;;3.22;;
28028;SDS011;15345;59.364;18.016;2023-05-07T02:30:18;3.38;;;2.92;;
28028;SDS011;15345;59.364;18.016;2023-05-07T02:31:39;3.92;;;3.25;;
28028;SDS011;15345;59.364;18.016;2023-05-07T02:32:58;3.53;;;3.22;;
28028;SDS011;15345;59.364;18.016;2023-05-07T02:34:17;3.20;;;3.00;;
28028;SDS011;15345;59.364;18.016;2023-05-07T02:35:36;3.88;;;2.90;;
28028;SDS011;15345;59.364;18.016;2023-05-07T02:36:55;8.15;;;3.22;;
28028;SDS011;15345;59.364;18.016;2023-05-07T02:38:14;5.88;;;3.45;;
28028;SDS011;15345;59.364;18.016;2023-05-07T02:39:33;6.53;;;3.30;;
28028;SDS011;15345;59.364;18.016;2023-05-07T02:40:52;4.55;;;3.20;;
28028;SDS011;15345;59.364;18.016;2023-05-07T02:42:11;3.42;;;3.05;;
28028;SDS011;15345;59.364;18.016;2023-05-07T02:43:30;6.65;;;3.38;;
28028;SDS011;15345;59.364;18.016;2023-05-07T02:44:49;4.28;;;3.42;;
28028;SDS011;15345;59.364;18.016;2023-05-07T02:46:08;3.58;;;3.28;;
28028;SDS011;15345;59.364;18.016;2023-05-07T02:47:27;5.18;;;3.65;;
28028;SDS011;15345;59.364;18.016;2023-05-07T02:48:47;4.65;;;3.40;;
28028;SDS011;15345;59.364;18.016;2023-05-07T02:50:06;4.45;;;3.50;;
28028;SDS011;15345;59.364;18.016;2023-05-07T02:51:25;4.75;;;3.53;;
28028;SDS011;15345;59.364;18.016;2023-05-07T02:52:44;4.35;;;3.05;;
28028;SDS011;15345;59.364;18.016;2023-05-07T02:54:03;5.07;;;3.63;;
28028;SDS011;15345;59.364;18.016;2023-05-07T02:55:22;4.90;;;3.80;;
28028;SDS011;15345;59.364;18.016;2023-05-07T02:56:41;6.70;;;3.50;;
28028;SDS011;15345;59.364;18.016;2023-05-07T02:58:00;4.47;;;3.50;;
28028;SDS011;15345;59.364;18.016;2023-05-07T02:59:19;4.05;;;3.45;;
28028;SDS011;15345;59.364;18.016;2023-05-07T03:00:38;6.05;;;3.95;;
28028;SDS011;15345;59.364;18.016;2023-05-07T03:01:57;3.50;;;3.20;;
28028;SDS011;15345;59.364;18.016;2023-05-07T03:03:16;3.80;;;3.38;;
28028;SDS011;15345;59.364;18.016;2023-05-07T03:04:36;3.85;;;3.47;;
28028;SDS011;15345;59.364;18.016;2023-05-07T03:05:54;3.90;;;3.03;;
28028;SDS011;15345;59.364;18.016;2023-05-07T03:07:14;4.50;;;3.35;;
28028;SDS011;15345;59.364;18.016;2023-05-07T03:08:33;3.97;;;3.50;;
28028;SDS011;15345;59.364;18.016;2023-05-07T03:09:52;3.40;;;3.20;;
28028;SDS011;15345;59.364;18.016;2023-05-07T03:11:12;4.20;;;3.22;;
28028;SDS011;15345;59.364;18.016;2023-05-07T03:12:31;4.57;;;3.67;;
28028;SDS011;15345;59.364;18.016;2023-05-07T03:13:49;5.55;;;3.83;;
28028;SDS011;15345;59.364;18.016;2023-05-07T03:15:09;3.58;;;3.28;;
28028;SDS011;15345;59.364;18.016;2023-05-07T03:16:28;4.00;;;3.60;;
28028;SDS011;15345;59.364;18.016;2023-05-07T03:17:47;5.10;;;3.72;;
28028;SDS011;15345;59.364;18.016;2023-05-07T03:19:07;4.05;;;3.63;;
28028;SDS011;15345;59.364;18.016;2023-05-07T03:20:26;3.58;;;3.38;;
28028;SDS011;15345;59.364;18.016;2023-05-07T03:21:45;3.92;;;3.47;;
28028;SDS011;15345;59.364;18.016;2023-05-07T03:23:04;3.85;;;3.38;;
28028;SDS011;15345;59.364;18.016;2023-05-07T03:24:23;5.95;;;3.25;;
28028;SDS011;15345;59.364;18.016;2023-05-07T03:25:42;4.10;;;3.72;;
28028;SDS011;15345;59.364;18.016;2023-05-07T03:27:01;5.55;;;3.88;;
28028;SDS011;15345;59.364;18.016;2023-05-07T03:28:20;5.07;;;3.72;;
28028;SDS011;15345;59.364;18.016;2023-05-07T03:29:39;4.72;;;3.65;;
28028;SDS011;15345;59.364;18.016;2023-05-07T03:30:57;4.65;;;4.25;;
28028;SDS011;15345;59.364;18.016;2023-05-07T03:32:16;5.35;;;3.85;;
28028;SDS011;15345;59.364;18.016;2023-05-07T03:33:38;5.63;;;3.55;;
28028;SDS011;15345;59.364;18.016;2023-05-07T03:34:57;4.25;;;3.58;;
28028;SDS011;15345;59.364;18.016;2023-05-07T03:36:16;4.18;;;3.88;;
28028;SDS011;15345;59.364;18.016;2023-05-07T03:37:35;4.32;;;3.92;;
28028;SDS011;15345;59.364;18.016;2023-05-07T03:38:54;4.15;;;3.75;;
28028;SDS011;15345;59.364;18.016;2023-05-07T03:40:13;6.13;;;3.97;;
28028;SDS011;15345;59.364;18.016;2023-05-07T03:41:32;4.90;;;3.58;;
28028;SDS011;15345;59.364;18.016;2023-05-07T03:42:51;4.65;;;3.42;;
28028;SDS011;15345;59.364;18.016;2023-05-07T03:44:10;4.78;;;3.70;;
28028;SDS011;15345;59.364;18.016;2023-05-07T03:45:29;4.18;;;3.58;;
28028;SDS011;15345;59.364;18.016;2023-05-07T03:46:48;3.65;;;3.45;;
28028;SDS011;15345;59.364;18.016;2023-05-07T03:48:07;3.90;;;3.60;;
28028;SDS011;15345;59.364;18.016;2023-05-07T03:49:27;4.53;;;3.33;;
28028;SDS011;15345;59.364;18.016;2023-05-07T03:50:46;3.65;;;3.35;;
28028;SDS011;15345;59.364;18.016;2023-05-07T03:52:06;5.70;;;3.83;;
28028;SDS011;15345;59.364;18.016;2023-05-07T03:53:25;4.20;;;3.80;;
28028;SDS011;15345;59.364;18.016;2023-05-07T03:54:44;7.22;;;3.63;;
28028;SDS011;15345;59.364;18.016;2023-05-07T03:56:03;7.25;;;3.47;;
28028;SDS011;15345;59.364;18.016;2023-05-07T03:57:22;6.30;;;3.50;;
28028;SDS011;15345;59.364;18.016;2023-05-07T03:58:41;3.95;;;3.55;;
28028;SDS011;15345;59.364;18.016;2023-05-07T04:00:00;4.00;;;3.70;;
28028;SDS011;15345;59.364;18.016;2023-05-07T04:01:19;5.88;;;3.35;;
28028;SDS011;15345;59.364;18.016;2023-05-07T04:02:38;4.55;;;3.13;;
28028;SDS011;15345;59.364;18.016;2023-05-07T04:03:57;6.35;;;3.75;;
28028;SDS011;15345;59.364;18.016;2023-05-07T04:05:16;4.47;;;3.33;;
28028;SDS011;15345;59.364;18.016;2023-05-07T04:06:35;3.42;;;3.13;;
28028;SDS011;15345;59.364;18.016;2023-05-07T04:07:54;4.57;;;3.45;;
28028;SDS011;15345;59.364;18.016;2023-05-07T04:09:13;3.55;;;3.30;;
28028;SDS011;15345;59.364;18.016;2023-05-07T04:10:32;4.97;;;3.75;;
28028;SDS011;15345;59.364;18.016;2023-05-07T04:11:52;4.82;;;3.45;;
28028;SDS011;15345;59.364;18.016;2023-05-07T04:13:10;3.88;;;3.47;;
28028;SDS011;15345;59.364;18.016;2023-05-07T04:14:29;5.07;;;3.20;;
28028;SDS011;15345;59.364;18.016;2023-05-07T04:15:51;4.13;;;3.10;;
28028;SDS011;15345;59.364;18.016;2023-05-07T04:17:10;8.10;;;3.63;;
28028;SDS011;15345;59.364;18.016;2023-05-07T04:18:29;5.03;;;3.00;;
28028;SDS011;15345;59.364;18.016;2023-05-07T04:19:48;3.83;;;2.88;;
28028;SDS011;15345;59.364;18.016;2023-05-07T04:21:17;3.28;;;2.95;;
28028;SDS011;15345;59.364;18.016;2023-05-07T04:22:36;4.43;;;3.05;;
28028;SDS011;15345;59.364;18.016;2023-05-07T04:23:55;4.43;;;3.22;;
28028;SDS011;15345;59.364;18.016;2023-05-07T04:25:15;3.33;;;3.00;;
28028;SDS011;15345;59.364;18.016;2023-05-07T04:26:35;3.03;;;2.80;;
28028;SDS011;15345;59.364;18.016;2023-05-07T04:27:54;3.20;;;2.85;;
28028;SDS011;15345;59.364;18.016;2023-05-07T04:29:13;3.65;;;2.83;;
28028;SDS011;15345;59.364;18.016;2023-05-07T04:30:32;3.38;;;3.08;;
28028;SDS011;15345;59.364;18.016;2023-05-07T04:31:51;3.55;;;3.08;;
28028;SDS011;15345;59.364;18.016;2023-05-07T04:33:10;3.20;;;2.80;;
28028;SDS011;15345;59.364;18.016;2023-05-07T04:34:30;3.17;;;2.95;;
28028;SDS011;15345;59.364;18.016;2023-05-07T04:35:49;3.88;;;3.13;;
28028;SDS011;15345;59.364;18.016;2023-05-07T04:37:08;3.63;;;2.92;;
28028;SDS011;15345;59.364;18.016;2023-05-07T04:38:27;3.17;;;2.92;;
28028;SDS011;15345;59.364;18.016;2023-05-07T04:39:46;3.58;;;3.20;;
28028;SDS011;15345;59.364;18.016;2023-05-07T04:41:06;3.53;;;3.22;;
28028;SDS011;15345;59.364;18.016;2023-05-07T04:42:25;3.17;;;2.92;;
28028;SDS011;15345;59.364;18.016;2023-05-07T04:43:44;3.90;;;3.10;;
28028;SDS011;15345;59.364;18.016;2023-05-07T04:45:03;4.28;;;3.00;;
28028;SDS011;15345;59.364;18.016;2023-05-07T04:46:23;4.53;;;3.28;;
28028;SDS011;15345;59.364;18.016;2023-05-07T04:47:43;4.43;;;2.80;;
28028;SDS011;15345;59.364;18.016;2023-05-07T04:49:02;2.83;;;2.53;;
28028;SDS011;15345;59.364;18.016;2023-05-07T04:50:21;2.55;;;2.35;;
28028;SDS011;15345;59.364;18.016;2023-05-07T04:51:43;2.70;;;2.50;;
28028;SDS011;15345;59.364;18.016;2023-05-07T04:53:02;4.35;;;2.50;;
28028;SDS011;15345;59.364;18.016;2023-05-07T04:54:21;5.22;;;2.53;;
28028;SDS011;15345;59.364;18.016;2023-05-07T04:55:40;3.20;;;2.83;;
28028;SDS011;15345;59.364;18.016;2023-05-07T04:56:59;3.08;;;2.75;;
28028;SDS011;15345;59.364;18.016;2023-05-07T04:58:18;5.72;;;2.50;;
28028;SDS011;15345;59.364;18.016;2023-05-07T04:59:37;2.75;;;2.55;;
28028;SDS011;15345;59.364;18.016;2023-05-07T05:00:56;5.50;;;3.00;;
28028;SDS011;15345;59.364;18.016;2023-05-07T05:02:15;2.25;;;2.13;;
28028;SDS011;15345;59.364;18.016;2023-05-07T05:03:34;4.15;;;2.65;;
28028;SDS011;15345;59.364;18.016;2023-05-07T05:04:53;3.67;;;2.72;;
28028;SDS011;15345;59.364;18.016;2023-05-07T05:06:12;2.85;;;2.50;;
28028;SDS011;15345;59.364;18.016;2023-05-07T05:07:31;2.85;;;2.38;;
28028;SDS011;15345;59.364;18.016;2023-05-07T05:08:50;4.50;;;2.40;;
28028;SDS011;15345;59.364;18.016;2023-05-07T05:10:09;2.60;;;2.40;;
28028;SDS011;15345;59.364;18.016;2023-05-07T05:11:28;2.70;;;2.50;;
28028;SDS011;15345;59.364;18.016;2023-05-07T05:12:47;3.03;;;2.75;;
28028;SDS011;15345;59.364;18.016;2023-05-07T05:14:06;3.45;;;2.40;;
28028;SDS011;15345;59.364;18.016;2023-05-07T05:15:25;2.50;;;2.30;;
28028;SDS011;15345;59.364;18.016;2023-05-07T05:16:44;3.08;;;2.63;;
28028;SDS011;15345;59.364;18.016;2023-05-07T05:18:03;2.75;;;2.55;;
28028;SDS011;15345;59.364;18.016;2023-05-07T05:19:22;2.72;;;2.45;;
28028;SDS011;15345;59.364;18.016;2023-05-07T05:20:41;2.70;;;2.40;;
28028;SDS011;15345;59.364;18.016;2023-05-07T05:21:59;2.40;;;2.30;;
28028;SDS011;15345;59.364;18.016;2023-05-07T05:23:19;4.47;;;2.70;;
28028;SDS011;15345;59.364;18.016;2023-05-07T05:24:39;4.38;;;2.10;;
28028;SDS011;15345;59.364;18.016;2023-05-07T05:25:58;3.00;;;2.55;;
28028;SDS011;15345;59.364;18.016;2023-05-07T05:27:17;3.10;;;2.70;;
28028;SDS011;15345;59.364;18.016;2023-05-07T05:28:36;4.38;;;2.63;;
28028;SDS011;15345;59.364;18.016;2023-05-07T05:29:54;3.42;;;2.13;;
28028;SDS011;15345;59.364;18.016;2023-05-07T05:31:14;2.42;;;2.22;;
28028;SDS011;15345;59.364;18.016;2023-05-07T05:32:33;3.72;;;2.47;;
28028;SDS011;15345;59.364;18.016;2023-05-07T05:33:51;2.42;;;2.08;;
28028;SDS011;15345;59.364;18.016;2023-05-07T05:35:10;2.30;;;1.90;;
28028;SDS011;15345;59.364;18.016;2023-05-07T05:36:29;3.40;;;2.10;;
28028;SDS011;15345;59.364;18.016;2023-05-07T05:37:49;2.88;;;2.05;;
28028;SDS011;15345;59.364;18.016;2023-05-07T05:39:08;2.42;;;1.92;;
28028;SDS011;15345;59.364;18.016;2023-05-07T05:40:27;4.90;;;2.35;;
28028;SDS011;15345;59.364;18.016;2023-05-07T05:41:46;2.28;;;2.08;;
28028;SDS011;15345;59.364;18.016;2023-05-07T05:43:05;3.65;;;2.15;;
28028;SDS011;15345;59.364;18.016;2023-05-07T05:44:24;2.85;;;2.00;;
28028;SDS011;15345;59.364;18.016;2023-05-07T05:45:44;2.65;;;2.42;;
28028;SDS011;15345;59.364;18.016;2023-05-07T05:47:03;2.72;;;2.53;;
28028;SDS011;15345;59.364;18.016;2023-05-07T05:48:23;3.90;;;2.10;;
28028;SDS011;15345;59.364;18.016;2023-05-07T05:49:42;5.32;;;2.25;;
28028;SDS011;15345;59.364;18.016;2023-05-07T05:51:01;2.45;;;2.15;;
28028;SDS011;15345;59.364;18.016;2023-05-07T05:52:20;3.60;;;2.45;;
28028;SDS011;15345;59.364;18.016;2023-05-07T05:53:42;3.72;;;2.22;;
28028;SDS011;15345;59.364;18.016;2023-05-07T05:55:01;2.38;;;1.95;;
28028;SDS011;15345;59.364;18.016;2023-05-07T05:56:20;2.47;;;2.10;;
28028;SDS011;15345;59.364;18.016;2023-05-07T05:57:40;2.05;;;1.95;;
28028;SDS011;15345;59.364;18.016;2023-05-07T05:58:59;2.85;;;1.95;;
28028;SDS011;15345;59.364;18.016;2023-05-07T06:00:18;2.92;;;2.30;;
28028;SDS011;15345;59.364;18.016;2023-05-07T06:01:38;6.65;;;2.10;;
28028;SDS011;15345;59.364;18.016;2023-05-07T06:02:57;2.30;;;2.10;;
28028;SDS011;15345;59.364;18.016;2023-05-07T06:04:16;2.00;;;1.90;;
28028;SDS011;15345;59.364;18.016;2023-05-07T06:05:35;2.55;;;1.83;;
28028;SDS011;15345;59.364;18.016;2023-05-07T06:06:54;3.25;;;1.90;;
28028;SDS011;15345;59.364;18.016;2023-05-07T06:08:13;2.42;;;1.73;;
28028;SDS011;15345;59.364;18.016;2023-05-07T06:09:32;1.88;;;1.70;;
28028;SDS011;15345;59.364;18.016;2023-05-07T06:10:51;2.28;;;2.00;;
28028;SDS011;15345;59.364;18.016;2023-05-07T06:12:11;3.92;;;1.83;;
28028;SDS011;15345;59.364;18.016;2023-05-07T06:13:29;1.95;;;1.75;;
28028;SDS011;15345;59.364;18.016;2023-05-07T06:14:48;1.70;;;1.60;;
28028;SDS011;15345;59.364;18.016;2023-05-07T06:16:07;3.13;;;1.90;;
28028;SDS011;15345;59.364;18.016;2023-05-07T06:17:26;1.95;;;1.85;;
28028;SDS011;15345;59.364;18.016;2023-05-07T06:18:45;3.03;;;1.65;;
28028;SDS011;15345;59.364;18.016;2023-05-07T06:20:05;2.10;;;1.73;;
28028;SDS011;15345;59.364;18.016;2023-05-07T06:21:24;1.77;;;1.67;;
28028;SDS011;15345;59.364;18.016;2023-05-07T06:22:43;3.92;;;1.63;;
28028;SDS011;15345;59.364;18.016;2023-05-07T06:24:02;2.17;;;1.70;;
28028;SDS011;15345;59.364;18.016;2023-05-07T06:25:21;2.08;;;1.60;;
28028;SDS011;15345;59.364;18.016;2023-05-07T06:26:40;2.05;;;1.50;;
28028;SDS011;15345;59.364;18.016;2023-05-07T06:27:59;1.98;;;1.88;;
28028;SDS011;15345;59.364;18.016;2023-05-07T06:29:19;2.55;;;1.58;;
28028;SDS011;15345;59.364;18.016;2023-05-07T06:30:37;2.85;;;1.50;;
28028;SDS011;15345;59.364;18.016;2023-05-07T06:31:56;4.30;;;1.38;;
28028;SDS011;15345;59.364;18.016;2023-05-07T06:33:24;3.10;;;1.70;;
28028;SDS011;15345;59.364;18.016;2023-05-07T06:34:44;1.80;;;1.70;;
28028;SDS011;15345;59.364;18.016;2023-05-07T06:36:03;1.60;;;1.48;;
28028;SDS011;15345;59.364;18.016;2023-05-07T06:37:22;1.50;;;1.40;;
28028;SDS011;15345;59.364;18.016;2023-05-07T06:38:40;2.67;;;1.25;;
28028;SDS011;15345;59.364;18.016;2023-05-07T06:40:00;1.35;;;1.25;;
28028;SDS011;15345;59.364;18.016;2023-05-07T06:41:19;4.05;;;1.77;;
28028;SDS011;15345;59.364;18.016;2023-05-07T06:42:39;2.17;;;1.20;;
28028;SDS011;15345;59.364;18.016;2023-05-07T06:43:58;1.77;;;1.48;;
28028;SDS011;15345;59.364;18.016;2023-05-07T06:45:17;1.48;;;1.38;;
28028;SDS011;15345;59.364;18.016;2023-05-07T06:46:35;1.73;;;1.63;;
28028;SDS011;15345;59.364;18.016;2023-05-07T06:47:54;2.45;;;1.35;;
28028;SDS011;15345;59.364;18.016;2023-05-07T06:49:13;1.30;;;1.20;;
28028;SDS011;15345;59.364;18.016;2023-05-07T06:50:32;3.10;;;1.55;;
28028;SDS011;15345;59.364;18.016;2023-05-07T06:51:51;2.13;;;1.58;;
28028;SDS011;15345;59.364;18.016;2023-05-07T06:53:10;2.90;;;1.80;;
28028;SDS011;15345;59.364;18.016;2023-05-07T06:54:29;3.08;;;1.50;;
28028;SDS011;15345;59.364;18.016;2023-05-07T06:55:48;1.60;;;1.42;;
28028;SDS011;15345;59.364;18.016;2023-05-07T06:57:07;1.90;;;1.38;;
28028;SDS011;15345;59.364;18.016;2023-05-07T06:58:26;1.73;;;1.63;;
28028;SDS011;15345;59.364;18.016;2023-05-07T06:59:45;3.08;;;1.70;;
28028;SDS011;15345;59.364;18.016;2023-05-07T07:01:04;1.58;;;1.48;;
28028;SDS011;15345;59.364;18.016;2023-05-07T07:02:23;2.72;;;1.70;;
28028;SDS011;15345;59.364;18.016;2023-05-07T07:03:42;2.72;;;1.40;;
28028;SDS011;15345;59.364;18.016;2023-05-07T07:05:01;2.35;;;1.42;;
28028;SDS011;15345;59.364;18.016;2023-05-07T07:06:20;3.13;;;1.70;;
28028;SDS011;15345;59.364;18.016;2023-05-07T07:07:39;1.92;;;1.13;;
28028;SDS011;15345;59.364;18.016;2023-05-07T07:08:58;3.72;;;1.65;;
28028;SDS011;15345;59.364;18.016;2023-05-07T07:10:18;1.73;;;1.60;;
28028;SDS011;15345;59.364;18.016;2023-05-07T07:11:37;2.25;;;1.40;;
28028;SDS011;15345;59.364;18.016;2023-05-07T07:12:57;1.80;;;1.70;;
28028;SDS011;15345;59.364;18.016;2023-05-07T07:14:16;1.80;;;1.70;;
28028;SDS011;15345;59.364;18.016;2023-05-07T07:15:35;3.45;;;1.80;;
28028;SDS011;15345;59.364;18.016;2023-05-07T07:16:53;2.00;;;1.52;;
28028;SDS011;15345;59.364;18.016;2023-05-07T07:18:13;1.73;;;1.33;;
28028;SDS011;15345;59.364;18.016;2023-05-07T07:19:32;2.38;;;1.42;;
28028;SDS011;15345;59.364;18.016;2023-05-07T07:20:51;4.78;;;1.48;;
28028;SDS011;15345;59.364;18.016;2023-05-07T07:22:10;2.03;;;1.63;;
28028;SDS011;15345;59.364;18.016;2023-05-07T07:23:29;1.50;;;1.40;;
28028;SDS011;15345;59.364;18.016;2023-05-07T07:24:48;3.28;;;1.50;;
28028;SDS011;15345;59.364;18.016;2023-05-07T07:26:06;2.95;;;1.60;;
28028;SDS011;15345;59.364;18.016;2023-05-07T07:27:25;1.75;;;1.63;;
28028;SDS011;15345;59.364;18.016;2023-05-07T07:28:45;4.05;;;1.77;;
28028;SDS011;15345;59.364;18.016;2023-05-07T07:30:04;1.40;;;1.30;;
28028;SDS011;15345;59.364;18.016;2023-05-07T07:31:23;4.10;;;1.40;;
28028;SDS011;15345;59.364;18.016;2023-05-07T07:32:42;1.85;;;1.15;;
28028;SDS011;15345;59.364;18.016;2023-05-07T07:34:01;1.30;;;1.20;;
28028;SDS011;15345;59.364;18.016;2023-05-07T07:35:20;16.20;;;1.73;;
28028;SDS011;15345;59.364;18.016;2023-05-07T07:36:39;2.58;;;1.25;;
28028;SDS011;15345;59.364;18.016;2023-05-07T07:37:58;1.80;;;1.38;;
28028;SDS011;15345;59.364;18.016;2023-05-07T07:39:18;2.10;;;1.50;;
28028;SDS011;15345;59.364;18.016;2023-05-07T07:40:38;1.83;;;1.20;;
28028;SDS011;15345;59.364;18.016;2023-05-07T07:41:58;1.85;;;1.50;;
28028;SDS011;15345;59.364;18.016;2023-05-07T07:43:17;2.53;;;1.60;;
28028;SDS011;15345;59.364;18.016;2023-05-07T07:44:36;2.60;;;1.67;;
28028;SDS011;15345;59.364;18.016;2023-05-07T07:45:54;1.38;;;1.27;;
28028;SDS011;15345;59.364;18.016;2023-05-07T07:47:13;3.28;;;1.40;;
28028;SDS011;15345;59.364;18.016;2023-05-07T07:48:33;2.05;;;1.65;;
28028;SDS011;15345;59.364;18.016;2023-05-07T07:49:52;2.60;;;1.42;;